createdAt,value
2018-08-03T00:01:53.569Z,22.50
2018-08-03T00:04:23.704Z,22.80
2018-08-03T00:06:53.735Z,23.10
2018-08-03T00:09:23.851Z,23.70
2018-08-03T00:11:53.927Z,23.50
2018-08-03T00:14:24.099Z,23.20
2018-08-03T00:16:53.937Z,23.30
2018-08-03T00:19:24.200Z,23.60
2018-08-03T00:21:54.187Z,23.40
2018-08-03T00:24:24.235Z,23.20
2018-08-03T00:26:54.409Z,23.50
2018-08-03T00:29:24.295Z,23.20
2018-08-03T00:31:54.507Z,23.40
2018-08-03T00:34:24.556Z,23.40
2018-08-03T00:36:55.883Z,23.20
2018-08-03T00:39:26.110Z,22.70
2018-08-03T00:41:56.654Z,22.30
2018-08-03T00:44:26.473Z,22.30
2018-08-03T00:46:56.780Z,22.10
2018-08-03T00:49:27.019Z,22.00
2018-08-03T00:51:57.239Z,22.20
2018-08-03T00:54:27.274Z,22.40
2018-08-03T00:56:57.099Z,22.20
2018-08-03T00:59:27.111Z,22.40
2018-08-03T01:01:57.303Z,22.80
2018-08-03T01:04:27.433Z,22.10
2018-08-03T01:06:57.396Z,21.90
2018-08-03T01:09:27.590Z,21.70
2018-08-03T01:11:57.750Z,21.80
2018-08-03T01:14:27.836Z,21.70
2018-08-03T01:16:57.699Z,22.00
2018-08-03T01:19:27.833Z,22.60
2018-08-03T01:21:58.016Z,22.70
2018-08-03T01:24:28.104Z,22.70
2018-08-03T01:26:58.271Z,22.90
2018-08-03T01:29:28.126Z,23.00
2018-08-03T01:31:58.167Z,22.50
2018-08-03T01:34:28.163Z,22.70
2018-08-03T01:36:58.033Z,22.40
2018-08-03T01:39:28.133Z,21.70
2018-08-03T01:41:58.103Z,21.30
2018-08-03T01:44:28.154Z,21.20
2018-08-03T01:46:58.505Z,21.10
2018-08-03T01:49:28.631Z,21.00
2018-08-03T01:51:58.825Z,20.80
2018-08-03T01:54:28.740Z,21.20
2018-08-03T01:56:58.990Z,22.00
2018-08-03T01:59:29.042Z,22.50
2018-08-03T02:01:59.022Z,22.60
2018-08-03T02:04:29.162Z,22.70
2018-08-03T02:06:59.190Z,22.90
2018-08-03T02:09:29.193Z,22.90
2018-08-03T02:12:00.373Z,22.50
2018-08-03T02:14:30.577Z,22.20
2018-08-03T02:17:01.807Z,21.60
2018-08-03T02:19:31.822Z,21.30
2018-08-03T02:22:01.820Z,21.30
2018-08-03T02:24:31.764Z,20.90
2018-08-03T02:27:01.949Z,20.60
2018-08-03T02:29:31.982Z,20.50
2018-08-03T02:32:02.163Z,20.80
2018-08-03T02:34:32.435Z,20.90
2018-08-03T02:37:02.472Z,20.70
2018-08-03T02:39:32.686Z,21.20
2018-08-03T02:42:02.849Z,21.90
2018-08-03T02:44:32.852Z,22.10
2018-08-03T02:47:06.133Z,22.20
2018-08-03T02:49:36.307Z,22.10
2018-08-03T02:52:06.500Z,21.70
2018-08-03T02:54:36.531Z,21.40
2018-08-03T02:57:06.641Z,20.90
2018-08-03T02:59:36.698Z,20.60
2018-08-03T03:02:06.874Z,20.40
2018-08-03T03:04:36.642Z,20.50
2018-08-03T03:07:06.742Z,21.10
2018-08-03T03:09:36.596Z,21.70
2018-08-03T03:12:06.791Z,21.60
2018-08-03T03:14:36.988Z,21.30
2018-08-03T03:17:07.066Z,21.00
2018-08-03T03:19:37.119Z,20.90
2018-08-03T03:22:07.246Z,21.00
2018-08-03T03:24:37.285Z,20.90
2018-08-03T03:27:07.327Z,20.70
2018-08-03T03:29:37.462Z,21.10
2018-08-03T03:32:07.488Z,21.50
2018-08-03T03:34:37.323Z,21.70
2018-08-03T03:37:07.607Z,21.10
2018-08-03T03:39:37.816Z,20.70
2018-08-03T03:42:07.907Z,20.40
2018-08-03T03:44:38.159Z,20.20
2018-08-03T03:47:08.883Z,20.20
2018-08-03T03:49:38.942Z,20.50
2018-08-03T03:52:09.006Z,20.90
2018-08-03T03:54:39.023Z,21.30
2018-08-03T03:57:09.051Z,21.20
2018-08-03T03:59:39.054Z,21.20
2018-08-03T04:02:09.121Z,21.20
2018-08-03T04:04:38.909Z,21.10
2018-08-03T04:07:08.906Z,21.40
2018-08-03T04:09:39.030Z,21.70
2018-08-03T04:12:08.860Z,21.80
2018-08-03T04:14:38.885Z,21.80
2018-08-03T04:17:08.840Z,21.60
2018-08-03T04:19:38.857Z,21.50
2018-08-03T04:22:08.898Z,20.90
2018-08-03T04:24:39.268Z,20.40
2018-08-03T04:27:09.750Z,20.30
2018-08-03T04:29:39.762Z,20.10
2018-08-03T04:32:10.010Z,20.00
2018-08-03T04:34:40.155Z,20.30
2018-08-03T04:37:10.233Z,21.00
2018-08-03T04:39:40.214Z,21.40
2018-08-03T04:42:11.285Z,21.30
2018-08-03T04:44:41.289Z,21.20
2018-08-03T04:47:13.448Z,21.30
2018-08-03T04:49:43.346Z,21.30
2018-08-03T04:52:17.486Z,21.50
2018-08-03T04:54:47.620Z,21.60
2018-08-03T04:57:17.761Z,21.60
2018-08-03T04:59:48.089Z,21.70
2018-08-03T05:02:18.931Z,21.70
2018-08-03T05:04:49.391Z,21.70
2018-08-03T05:07:19.483Z,21.30
2018-08-03T05:09:49.647Z,21.00
2018-08-03T05:12:19.919Z,21.00
2018-08-03T05:14:49.955Z,21.20
2018-08-03T05:17:20.149Z,21.20
2018-08-03T05:19:50.061Z,21.40
2018-08-03T05:22:20.616Z,21.60
2018-08-03T05:24:50.766Z,21.90
2018-08-03T05:27:20.564Z,21.90
2018-08-03T05:29:50.376Z,22.00
2018-08-03T05:32:20.542Z,22.10
2018-08-03T05:34:50.808Z,22.30
2018-08-03T05:37:20.803Z,22.40
2018-08-03T05:39:51.495Z,22.50
2018-08-03T05:42:21.446Z,22.50
2018-08-03T05:44:51.302Z,22.30
2018-08-03T05:47:21.198Z,21.90
2018-08-03T05:49:51.282Z,21.90
2018-08-03T05:52:21.461Z,21.80
2018-08-03T05:54:51.622Z,21.60
2018-08-03T05:57:21.711Z,21.40
2018-08-03T05:59:51.767Z,21.50
2018-08-03T06:02:22.016Z,21.60
2018-08-03T06:04:52.102Z,21.40
2018-08-03T06:07:22.167Z,21.50
2018-08-03T06:09:52.419Z,21.60
2018-08-03T06:12:22.615Z,21.70
2018-08-03T06:14:52.535Z,21.60
2018-08-03T06:17:23.185Z,21.70
2018-08-03T06:19:53.290Z,21.90
2018-08-03T06:22:23.115Z,21.90
2018-08-03T06:24:53.427Z,21.80
2018-08-03T06:27:23.508Z,22.00
2018-08-03T06:29:53.535Z,22.20
2018-08-03T06:32:24.411Z,22.30
2018-08-03T06:34:55.066Z,22.40
2018-08-03T06:37:24.993Z,22.60
2018-08-03T06:39:55.244Z,22.40
2018-08-03T06:42:25.459Z,22.50
2018-08-03T06:44:55.751Z,22.40
2018-08-03T06:47:25.577Z,22.40
2018-08-03T06:49:56.432Z,22.50
2018-08-03T06:52:26.693Z,22.50
2018-08-03T06:54:56.900Z,22.70
2018-08-03T06:57:26.974Z,22.80
2018-08-03T06:59:56.995Z,22.80
2018-08-03T07:02:26.786Z,22.80
2018-08-03T07:04:56.944Z,22.90
2018-08-03T07:07:26.970Z,23.00
2018-08-03T07:09:57.190Z,23.00
2018-08-03T07:12:27.236Z,23.10
2018-08-03T07:14:57.462Z,23.10
2018-08-03T07:17:27.251Z,23.30
2018-08-03T07:19:57.402Z,23.40
2018-08-03T07:22:27.590Z,23.50
2018-08-03T07:24:57.729Z,23.60
2018-08-03T07:27:27.969Z,23.80
2018-08-03T07:29:57.968Z,23.90
2018-08-03T07:32:27.993Z,24.20
2018-08-03T07:34:58.009Z,24.20
2018-08-03T07:37:28.163Z,24.30
2018-08-03T07:39:58.334Z,24.50
2018-08-03T07:42:28.312Z,24.50
2018-08-03T07:44:58.592Z,24.50
2018-08-03T07:47:28.679Z,24.60
2018-08-03T07:49:59.600Z,24.70
2018-08-03T07:52:29.915Z,24.80
2018-08-03T07:55:00.394Z,24.80
2018-08-03T07:57:30.263Z,25.00
2018-08-03T08:00:00.669Z,25.20
2018-08-03T08:02:30.805Z,25.30
2018-08-03T08:05:01.073Z,25.50
2018-08-03T08:07:30.912Z,25.60
2018-08-03T08:10:00.759Z,25.80
2018-08-03T08:12:31.012Z,26.00
2018-08-03T08:15:00.862Z,26.10
2018-08-03T08:17:30.841Z,26.30
2018-08-03T08:20:01.314Z,26.50
2018-08-03T08:22:31.367Z,26.70
2018-08-03T08:25:01.631Z,26.80
2018-08-03T08:27:31.981Z,26.90
2018-08-03T08:30:02.248Z,27.10
2018-08-03T08:32:32.250Z,27.20
2018-08-03T08:35:02.114Z,27.50
2018-08-03T08:37:31.949Z,27.70
2018-08-03T08:40:02.003Z,27.80
2018-08-03T08:42:32.298Z,28.00
2018-08-03T08:45:02.457Z,28.20
2018-08-03T08:47:32.543Z,28.50
2018-08-03T08:50:02.855Z,28.70
2018-08-03T08:52:32.987Z,28.80
2018-08-03T08:55:02.801Z,28.90
2018-08-03T08:57:32.777Z,29.10
2018-08-03T09:00:02.831Z,29.20
2018-08-03T09:02:32.638Z,29.30
2018-08-03T09:05:03.075Z,29.40
2018-08-03T09:07:33.085Z,29.50
2018-08-03T09:10:03.149Z,29.80
2018-08-03T09:12:33.290Z,29.90
2018-08-03T09:15:03.349Z,30.00
2018-08-03T09:17:33.547Z,30.20
2018-08-03T09:20:03.969Z,30.20
2018-08-03T09:22:34.042Z,30.10
2018-08-03T09:25:04.402Z,30.10
2018-08-03T09:27:34.830Z,30.30
2018-08-03T09:30:05.719Z,30.50
2018-08-03T09:32:35.910Z,30.90
2018-08-03T09:35:07.164Z,31.00
2018-08-03T09:37:37.411Z,31.00
2018-08-03T09:40:08.053Z,31.00
2018-08-03T09:42:38.295Z,31.30
2018-08-03T09:45:08.427Z,31.40
2018-08-03T09:47:39.397Z,31.30
2018-08-03T09:50:10.118Z,31.50
2018-08-03T09:52:40.627Z,31.90
2018-08-03T09:55:11.217Z,31.70
2018-08-03T09:57:41.460Z,31.80
2018-08-03T10:00:16.306Z,31.90
2018-08-03T10:02:47.046Z,31.90
2018-08-03T10:05:17.106Z,32.30
2018-08-03T10:07:47.255Z,32.40
2018-08-03T10:10:18.301Z,32.50
2018-08-03T10:12:48.394Z,32.40
2018-08-03T10:15:19.336Z,32.40
2018-08-03T10:17:49.480Z,32.50
2018-08-03T10:20:19.257Z,32.30
2018-08-03T10:22:49.141Z,32.70
2018-08-03T10:25:19.134Z,32.80
2018-08-03T10:27:49.151Z,33.00
2018-08-03T10:30:19.370Z,33.30
2018-08-03T10:32:49.434Z,33.00
2018-08-03T10:35:19.315Z,33.50
2018-08-03T10:37:49.283Z,33.60
2018-08-03T10:40:19.824Z,33.70
2018-08-03T10:42:49.587Z,33.40
2018-08-03T10:45:19.383Z,33.40
2018-08-03T10:47:49.262Z,33.90
2018-08-03T10:50:19.655Z,34.00
2018-08-03T10:52:49.717Z,34.00
2018-08-03T10:55:19.820Z,33.90
2018-08-03T10:57:49.516Z,34.10
2018-08-03T11:03:23.269Z,34.40
2018-08-03T11:05:53.584Z,35.20
2018-08-03T11:08:24.469Z,35.20
2018-08-03T11:10:54.631Z,35.10
2018-08-03T11:13:24.783Z,35.20
2018-08-03T11:15:54.687Z,34.80
2018-08-03T11:18:24.764Z,35.10
2018-08-03T11:20:54.587Z,35.30
2018-08-03T11:23:24.435Z,35.30
2018-08-03T11:25:54.607Z,35.40
2018-08-03T11:28:24.848Z,35.60
2018-08-03T11:30:54.628Z,35.30
2018-08-03T11:33:24.689Z,35.40
2018-08-03T11:35:55.354Z,35.40
2018-08-03T11:38:25.575Z,35.70
2018-08-03T11:40:55.898Z,35.80
2018-08-03T11:43:25.890Z,36.00
2018-08-03T11:45:56.004Z,35.70
2018-08-03T11:48:26.014Z,35.40
2018-08-03T11:50:55.998Z,35.80
2018-08-03T11:53:27.163Z,36.00
2018-08-03T11:55:56.999Z,36.20
2018-08-03T11:58:27.179Z,36.10
2018-08-03T12:00:58.198Z,36.30
2018-08-03T12:03:28.060Z,36.30
2018-08-03T12:05:58.094Z,36.30
2018-08-03T12:08:28.294Z,36.40
2018-08-03T12:10:58.269Z,36.90
2018-08-03T12:13:28.398Z,37.00
2018-08-03T12:15:58.493Z,36.80
2018-08-03T12:18:28.535Z,36.70
2018-08-03T12:20:58.589Z,37.40
2018-08-03T12:23:28.877Z,36.90
2018-08-03T12:25:58.825Z,37.00
2018-08-03T12:28:28.902Z,37.10
2018-08-03T12:30:58.802Z,37.50
2018-08-03T12:33:28.902Z,37.10
2018-08-03T12:40:11.863Z,36.60
2018-08-03T12:42:41.950Z,36.60
2018-08-03T12:45:11.931Z,36.50
2018-08-03T12:47:41.883Z,36.60
2018-08-03T12:50:11.706Z,36.90
2018-08-03T12:52:45.103Z,36.80
2018-08-03T12:55:14.980Z,36.50
2018-08-03T12:57:44.970Z,36.70
2018-08-03T13:00:14.924Z,36.60
2018-08-03T13:02:44.672Z,36.60
2018-08-03T13:05:14.531Z,36.70
2018-08-03T13:07:44.442Z,37.20
2018-08-03T13:10:14.268Z,37.00
2018-08-03T13:12:44.014Z,36.80
2018-08-03T13:15:15.934Z,36.80
2018-08-03T13:17:45.910Z,37.20
2018-08-03T13:20:15.859Z,37.40
2018-08-03T13:22:46.259Z,37.30
2018-08-03T13:25:17.132Z,37.50
2018-08-03T13:27:47.167Z,37.30
2018-08-03T13:30:16.999Z,37.10
2018-08-03T13:32:48.263Z,37.20
2018-08-03T13:35:18.245Z,37.10
2018-08-03T13:37:48.195Z,37.60
2018-08-03T13:40:18.076Z,37.70
2018-08-03T13:42:48.128Z,37.90
2018-08-03T13:45:17.951Z,38.10
2018-08-03T13:47:47.863Z,38.20
2018-08-03T13:50:17.979Z,37.30
2018-08-03T13:52:48.011Z,37.60
2018-08-03T13:55:17.956Z,38.10
2018-08-03T13:57:48.169Z,37.80
2018-08-03T14:00:18.091Z,37.80
2018-08-03T14:02:48.113Z,37.90
2018-08-03T14:05:18.017Z,37.90
2018-08-03T14:07:47.935Z,38.00
2018-08-03T14:10:18.047Z,38.30
2018-08-03T14:12:47.939Z,38.50
2018-08-03T14:15:18.181Z,37.90
2018-08-03T14:17:48.135Z,38.10
2018-08-03T14:20:18.193Z,37.80
2018-08-03T14:22:48.300Z,37.90
2018-08-03T14:25:18.224Z,37.60
2018-08-03T14:27:48.033Z,37.30
2018-08-03T14:30:17.914Z,37.00
2018-08-03T14:32:47.770Z,36.20
2018-08-03T14:35:22.779Z,36.10
2018-08-03T14:37:52.849Z,35.70
2018-08-03T14:40:24.402Z,35.90
2018-08-03T14:42:55.762Z,35.70
2018-08-03T14:45:27.194Z,35.70
2018-08-03T14:47:57.021Z,35.60
2018-08-03T14:50:28.090Z,36.30
2018-08-03T14:52:58.141Z,36.20
2018-08-03T14:55:28.014Z,36.20
2018-08-03T14:57:58.209Z,36.40
2018-08-03T15:00:28.540Z,36.10
2018-08-03T15:02:58.624Z,36.10
2018-08-03T15:05:28.883Z,36.20
2018-08-03T15:07:59.517Z,36.40
2018-08-03T15:10:29.558Z,36.50
2018-08-03T15:12:59.391Z,36.50
2018-08-03T15:15:29.761Z,36.60
2018-08-03T15:17:59.912Z,36.70
2018-08-03T15:20:30.139Z,37.10
2018-08-03T15:23:00.583Z,37.00
2018-08-03T15:25:30.656Z,37.00
2018-08-03T15:28:08.577Z,36.80
2018-08-03T15:30:38.690Z,36.50
2018-08-03T15:33:09.043Z,36.80
2018-08-03T15:35:38.967Z,36.70
2018-08-03T15:38:08.974Z,36.40
2018-08-03T15:40:38.935Z,36.30
2018-08-03T15:43:08.764Z,36.10
2018-08-03T15:45:38.567Z,36.00
2018-08-03T15:48:08.701Z,35.70
2018-08-03T15:50:38.826Z,35.70
2018-08-03T15:53:08.606Z,35.70
2018-08-03T15:55:38.662Z,35.70
2018-08-03T15:58:08.750Z,35.90
2018-08-03T16:00:38.800Z,35.70
2018-08-03T16:03:09.131Z,35.80
2018-08-03T16:05:39.190Z,35.70
2018-08-03T16:08:08.982Z,36.00
2018-08-03T16:10:38.816Z,36.00
2018-08-03T16:13:09.026Z,36.10
2018-08-03T16:15:38.957Z,35.90
2018-08-03T16:18:08.821Z,35.90
2018-08-03T16:20:38.799Z,36.00
2018-08-03T16:23:08.682Z,36.20
2018-08-03T16:25:38.697Z,35.90
2018-08-03T16:28:08.576Z,36.00
2018-08-03T16:30:38.478Z,36.00
2018-08-03T16:33:08.550Z,36.30
2018-08-03T16:35:38.516Z,36.40
2018-08-03T16:38:08.418Z,36.10
2018-08-03T16:40:38.251Z,36.20
2018-08-03T16:43:08.408Z,36.10
2018-08-03T16:45:39.528Z,35.80
2018-08-03T16:48:09.584Z,36.00
2018-08-03T16:50:39.527Z,35.90
2018-08-03T16:53:09.669Z,35.80
2018-08-03T16:55:40.151Z,35.70
2018-08-03T16:58:10.227Z,35.70
2018-08-03T17:00:40.307Z,35.50
2018-08-03T17:03:12.433Z,35.50
2018-08-03T17:05:42.496Z,35.40
2018-08-03T17:08:12.549Z,35.60
2018-08-03T17:10:43.622Z,35.60
2018-08-03T17:13:13.922Z,35.40
2018-08-03T17:15:43.924Z,35.30
2018-08-03T17:18:13.876Z,35.30
2018-08-03T17:20:44.073Z,35.40
2018-08-03T17:23:15.060Z,35.60
2018-08-03T17:25:45.139Z,35.40
2018-08-03T17:28:14.981Z,35.10
2018-08-03T17:30:45.370Z,35.20
2018-08-03T17:33:39.065Z,35.20
2018-08-03T17:36:09.810Z,35.00
2018-08-03T17:38:39.779Z,35.00
2018-08-03T17:41:10.258Z,35.00
2018-08-03T17:43:40.730Z,35.00
2018-08-03T17:46:12.742Z,34.80
2018-08-03T17:48:42.863Z,34.60
2018-08-03T17:51:13.070Z,34.50
2018-08-03T17:53:43.231Z,34.50
2018-08-03T17:56:13.311Z,34.30
2018-08-03T17:58:46.808Z,34.20
2018-08-03T18:01:17.612Z,34.20
2018-08-03T18:03:52.482Z,34.10
2018-08-03T18:06:22.935Z,33.90
2018-08-03T18:08:53.365Z,33.80
2018-08-03T18:11:46.140Z,33.70
2018-08-03T18:14:40.252Z,33.60
2018-08-03T18:17:10.351Z,33.60
2018-08-03T18:22:52.815Z,33.20
2018-08-03T18:28:28.410Z,33.00
2018-08-03T18:31:26.289Z,32.70
2018-08-03T18:33:58.469Z,32.60
2018-08-03T18:36:29.019Z,32.50
2018-08-03T18:39:00.125Z,32.50
2018-08-03T18:41:30.187Z,32.50
2018-08-03T18:44:00.790Z,32.40
2018-08-03T18:46:31.161Z,32.30
2018-08-03T18:49:05.924Z,32.10
2018-08-03T18:51:36.158Z,32.10
2018-08-03T18:54:29.805Z,32.10
2018-08-03T18:57:00.083Z,32.10
2018-08-03T18:59:35.648Z,31.90
2018-08-03T19:02:05.999Z,31.90
2018-08-03T19:04:37.813Z,31.80
2018-08-03T19:07:14.687Z,31.80
2018-08-03T19:09:46.528Z,31.70
2018-08-03T19:12:28.342Z,31.70
2018-08-03T19:15:05.147Z,31.30
2018-08-03T19:17:36.446Z,31.10
2018-08-03T19:20:18.703Z,31.00
2018-08-03T19:23:06.953Z,30.80
2018-08-03T19:25:38.376Z,30.70
2018-08-03T19:28:08.522Z,30.90
2018-08-03T19:30:38.744Z,30.90
2018-08-03T19:36:19.338Z,30.80
2018-08-03T19:38:50.601Z,30.80
2018-08-03T19:41:21.240Z,30.80
2018-08-03T19:43:51.239Z,30.70
2018-08-03T19:46:21.288Z,30.60
2018-08-03T19:48:56.468Z,30.50
2018-08-03T19:51:35.158Z,30.50
2018-08-03T19:54:07.194Z,30.40
2018-08-03T19:56:39.821Z,30.40
2018-08-03T19:59:11.302Z,30.30
2018-08-03T20:01:41.499Z,30.10
2018-08-03T20:04:26.090Z,30.10
2018-08-03T20:06:56.315Z,30.00
2018-08-03T20:09:26.218Z,29.50
2018-08-03T20:11:57.119Z,29.50
2018-08-03T20:14:31.381Z,29.50
2018-08-03T20:17:01.503Z,29.40
2018-08-03T20:19:31.564Z,29.50
2018-08-03T20:22:18.630Z,29.60
2018-08-03T20:24:48.523Z,29.60
2018-08-03T20:27:18.563Z,29.60
2018-08-03T20:29:48.640Z,29.60
2018-08-03T20:32:18.873Z,29.60
2018-08-03T20:34:48.844Z,29.50
2018-08-03T20:37:19.110Z,29.40
2018-08-03T20:39:48.956Z,29.00
2018-08-03T20:42:20.360Z,28.60
2018-08-03T20:44:50.623Z,28.20
2018-08-03T20:47:25.687Z,28.20
2018-08-03T20:49:56.129Z,27.80
2018-08-03T20:52:32.235Z,27.50
2018-08-03T20:55:02.167Z,27.40
2018-08-03T20:57:32.219Z,27.50
2018-08-03T21:00:02.071Z,27.50
2018-08-03T21:02:32.298Z,27.80
2018-08-03T21:05:02.293Z,28.10
2018-08-03T21:07:32.047Z,28.30
2018-08-03T21:10:01.839Z,28.30
2018-08-03T21:12:31.927Z,27.80
2018-08-03T21:15:01.879Z,27.60
2018-08-03T21:17:32.119Z,27.30
2018-08-03T21:20:02.121Z,27.30
2018-08-03T21:22:32.229Z,27.50
2018-08-03T21:25:02.124Z,27.40
2018-08-03T21:27:32.030Z,27.60
2018-08-03T21:30:01.852Z,27.50
2018-08-03T21:32:31.782Z,27.40
2018-08-03T21:35:03.612Z,27.30
2018-08-03T21:37:35.522Z,27.60
2018-08-03T21:40:06.000Z,27.60
2018-08-03T21:42:36.296Z,27.70
2018-08-03T21:45:07.119Z,27.70
2018-08-03T21:47:37.289Z,28.00
2018-08-03T21:50:07.287Z,27.70
2018-08-03T21:52:37.338Z,27.90
2018-08-03T21:55:07.334Z,27.40
2018-08-03T21:57:37.401Z,27.60
2018-08-03T22:00:14.771Z,27.40
2018-08-03T22:02:44.738Z,27.40
2018-08-03T22:05:15.023Z,27.00
2018-08-03T22:07:45.074Z,27.20
2018-08-03T22:10:14.869Z,27.00
2018-08-03T22:12:44.826Z,27.00
2018-08-03T22:15:18.523Z,26.80
2018-08-03T22:17:48.594Z,26.60
2018-08-03T22:20:18.778Z,26.50
2018-08-03T22:22:48.742Z,26.60
2018-08-03T22:25:18.690Z,26.60
2018-08-03T22:27:48.724Z,27.20
2018-08-03T22:30:18.575Z,27.40
2018-08-03T22:32:48.335Z,27.40
2018-08-03T22:35:18.148Z,27.10
2018-08-03T22:37:48.125Z,26.70
2018-08-03T22:40:18.698Z,26.30
2018-08-03T22:42:48.617Z,26.10
2018-08-03T22:45:18.630Z,26.30
2018-08-03T22:47:48.660Z,26.30
2018-08-03T22:50:18.731Z,26.60
2018-08-03T22:52:48.676Z,26.50
2018-08-03T22:55:18.438Z,26.60
2018-08-03T22:57:48.574Z,26.30
2018-08-03T23:00:18.970Z,26.10
2018-08-03T23:02:48.800Z,26.10
2018-08-03T23:05:18.816Z,25.90
2018-08-03T23:07:48.779Z,26.10
2018-08-03T23:10:18.512Z,26.10
2018-08-03T23:12:48.638Z,26.20
2018-08-03T23:15:18.596Z,26.30
2018-08-03T23:17:48.590Z,26.20
2018-08-03T23:20:18.501Z,25.90
2018-08-03T23:22:48.308Z,25.80
2018-08-03T23:25:18.854Z,25.70
2018-08-03T23:27:48.738Z,25.70
2018-08-03T23:30:18.587Z,25.80
2018-08-03T23:32:48.379Z,26.00
2018-08-03T23:35:18.342Z,25.90
2018-08-03T23:37:48.193Z,25.80
2018-08-03T23:40:18.065Z,25.70
2018-08-03T23:42:48.042Z,25.70
2018-08-03T23:45:29.431Z,25.50
2018-08-03T23:47:59.655Z,25.30
2018-08-03T23:50:35.167Z,25.30
2018-08-03T23:53:05.230Z,25.10
2018-08-03T23:55:35.262Z,24.90
2018-08-03T23:58:05.266Z,24.90
